createdAt,value
2019-01-11T13:29:53.246Z,999.08
2019-01-11T13:30:53.010Z,999.12
2019-01-11T13:32:48.250Z,999.03
2019-01-11T13:33:48.140Z,998.99
2019-01-11T13:35:44.263Z,998.93
2019-01-11T13:36:44.107Z,998.97
2019-01-11T13:38:39.394Z,998.92
2019-01-11T13:39:39.278Z,999.11
2019-01-11T13:41:34.512Z,999.17
2019-01-11T13:42:34.460Z,998.94
2019-01-11T13:44:29.686Z,999.03
2019-01-11T13:45:29.579Z,999.01
2019-01-11T13:47:25.681Z,998.99
2019-01-11T13:48:25.569Z,999.02
2019-01-11T13:50:20.839Z,999.09
2019-01-11T13:51:20.724Z,999.06
2019-01-11T13:53:15.993Z,999.10
2019-01-11T13:54:15.883Z,999.21
2019-01-11T13:56:11.162Z,999.06
2019-01-11T13:57:11.064Z,999.05
2019-01-11T13:59:06.355Z,999.09
2019-01-11T14:00:06.243Z,999.07
2019-01-11T14:02:01.521Z,999.16
2019-01-11T14:03:01.417Z,999.10
2019-01-11T14:04:56.666Z,999.13
2019-01-11T14:05:56.569Z,999.02
2019-01-11T14:07:52.735Z,999.04
2019-01-11T14:08:52.674Z,999.17
2019-01-11T14:10:47.906Z,999.10
2019-01-11T14:11:47.802Z,999.14
2019-01-11T14:13:43.106Z,999.20
2019-01-11T14:14:42.985Z,999.18
2019-01-11T14:16:39.073Z,999.27
2019-01-11T14:17:38.968Z,999.14
2019-01-11T14:19:34.239Z,999.13
2019-01-11T14:20:34.130Z,999.19
2019-01-11T14:22:29.399Z,999.17
2019-01-11T14:23:29.304Z,999.22
2019-01-11T14:25:24.579Z,999.19
2019-01-11T14:26:24.489Z,999.23
2019-01-11T14:28:19.755Z,999.24
2019-01-11T14:29:19.641Z,999.39
2019-01-11T14:31:15.724Z,999.28
2019-01-11T14:32:15.625Z,999.18
2019-01-11T14:34:10.886Z,999.23
2019-01-11T14:35:10.786Z,999.18
2019-01-11T14:37:06.963Z,999.21
2019-01-11T14:38:06.828Z,999.23
2019-01-11T14:40:02.908Z,999.26
2019-01-11T14:41:02.818Z,999.18
2019-01-11T14:42:58.065Z,999.26
2019-01-11T14:43:57.978Z,999.16
2019-01-11T14:45:53.222Z,999.17
2019-01-11T14:46:53.116Z,999.17
2019-01-11T14:48:48.382Z,999.18
2019-01-11T14:49:48.289Z,999.24
2019-01-11T14:51:43.563Z,999.21
2019-01-11T14:52:43.463Z,999.20
2019-01-11T14:54:39.540Z,999.18
2019-01-11T14:55:39.450Z,999.21
2019-01-11T14:57:36.266Z,999.25
2019-01-11T14:58:36.133Z,999.14
2019-01-11T15:00:32.233Z,999.26
2019-01-11T15:01:32.143Z,999.19
2019-01-11T15:03:27.413Z,999.22
2019-01-11T15:04:27.307Z,999.23
2019-01-11T15:06:22.546Z,999.32
2019-01-11T15:07:22.467Z,999.35
2019-01-11T15:09:17.715Z,999.31
2019-01-11T15:10:17.605Z,999.31
2019-01-11T15:12:12.877Z,999.25
2019-01-11T15:13:12.769Z,999.31
2019-01-11T15:15:08.025Z,999.31
2019-01-11T15:16:07.932Z,999.27
2019-01-11T15:18:03.201Z,999.39
2019-01-11T15:19:03.096Z,999.40
2019-01-11T15:20:58.359Z,999.43
2019-01-11T15:21:58.271Z,999.32
2019-01-11T15:23:54.364Z,999.35
2019-01-11T15:24:54.282Z,999.39
2019-01-11T15:26:49.574Z,999.47
2019-01-11T15:27:49.449Z,999.45
2019-01-11T15:29:45.569Z,999.45
2019-01-11T15:30:45.547Z,999.43
2019-01-11T15:32:40.745Z,999.42
2019-01-11T15:33:40.642Z,999.40
2019-01-11T15:35:35.925Z,999.38
2019-01-11T15:36:35.808Z,999.43
2019-01-11T15:38:31.074Z,999.46
2019-01-11T15:39:30.995Z,999.46
2019-01-11T15:42:19.020Z,999.53
2019-01-11T15:43:18.916Z,999.52
2019-01-11T15:45:15.065Z,999.53
2019-01-11T15:46:15.344Z,999.51
2019-01-11T15:48:11.013Z,999.50
2019-01-11T15:49:10.923Z,999.64
2019-01-11T15:51:06.177Z,999.56
2019-01-11T15:52:06.083Z,999.66
2019-01-11T15:54:01.334Z,999.70
2019-01-11T15:55:01.265Z,999.63
2019-01-11T15:56:56.524Z,999.69
2019-01-11T15:57:56.420Z,999.66
2019-01-11T15:59:51.686Z,999.71
2019-01-11T16:00:51.580Z,999.73
2019-01-11T19:29:23.302Z,1001.44
2019-01-11T19:30:23.090Z,1001.39
2019-01-11T19:32:18.322Z,1001.47
2019-01-11T19:33:18.228Z,1001.41
2019-01-11T19:35:13.559Z,1001.43
2019-01-11T19:36:13.363Z,1001.48
2019-01-11T19:38:08.672Z,1001.51
2019-01-11T19:39:08.565Z,1001.47
2019-01-11T19:41:03.806Z,1001.60
2019-01-11T19:42:03.689Z,1001.41
2019-01-11T19:43:58.953Z,1001.51
2019-01-11T19:44:58.847Z,1001.52
2019-01-11T19:46:54.911Z,1001.66
2019-01-11T19:47:54.815Z,1001.66
2019-01-11T19:49:50.073Z,1001.61
2019-01-11T19:50:49.962Z,1001.67
2019-01-11T19:52:45.201Z,1001.67
2019-01-11T19:53:45.124Z,1001.63
2019-01-11T19:55:41.186Z,1001.54
2019-01-11T19:56:41.101Z,1001.59
2019-01-11T19:58:36.387Z,1001.44
2019-01-11T19:59:36.236Z,1001.51
2019-01-11T20:00:36.161Z,1001.48
2019-01-11T20:01:36.144Z,1001.52
2019-01-11T20:02:36.016Z,1001.48
2019-01-11T20:03:35.940Z,1001.48
2019-01-11T20:04:35.860Z,1001.57
2019-01-11T20:05:35.779Z,1001.46
2019-01-11T20:06:35.698Z,1001.52
2019-01-11T20:07:35.638Z,1001.53
2019-01-11T20:08:35.588Z,1001.54
2019-01-11T20:09:35.483Z,1001.53
2019-01-11T20:10:35.438Z,1001.58
2019-01-11T20:11:35.312Z,1001.63
2019-01-11T20:12:35.246Z,1001.70
2019-01-11T20:13:35.183Z,1001.71
2019-01-11T20:14:35.095Z,1001.73
2019-01-11T20:15:35.044Z,1001.80
2019-01-11T20:16:34.963Z,1001.78
2019-01-11T20:17:34.873Z,1001.71
2019-01-11T20:18:34.825Z,1001.71
2019-01-11T20:19:34.715Z,1001.77
2019-01-11T20:20:34.632Z,1001.78
2019-01-11T20:21:34.569Z,1001.69
2019-01-11T20:22:34.501Z,1001.74
2019-01-11T20:23:36.807Z,1001.77
2019-01-11T20:24:34.336Z,1001.76
2019-01-11T20:25:34.252Z,1001.72
2019-01-11T20:26:34.171Z,1001.70
2019-01-11T20:27:34.155Z,1001.76
2019-01-11T20:28:34.039Z,1001.71
2019-01-11T20:29:33.960Z,1001.68
2019-01-11T20:30:33.895Z,1001.74
2019-01-11T20:31:33.810Z,1001.79
2019-01-11T20:32:33.729Z,1001.78
2019-01-11T20:33:33.657Z,1001.82
2019-01-11T20:34:33.594Z,1001.76
2019-01-11T20:35:33.511Z,1001.90
2019-01-11T20:36:33.432Z,1001.87
2019-01-11T20:37:33.576Z,1001.83
2019-01-11T20:38:33.300Z,1001.93
2019-01-11T20:39:33.190Z,1001.84
2019-01-11T20:40:33.122Z,1001.86
2019-01-11T20:41:33.043Z,1001.87
2019-01-11T20:42:32.959Z,1001.87
2019-01-11T20:43:32.895Z,1001.87
2019-01-11T20:44:32.821Z,1001.86
2019-01-11T20:45:32.745Z,1001.83
2019-01-11T20:46:32.669Z,1001.84
2019-01-11T20:47:32.613Z,1001.79
2019-01-11T20:48:32.505Z,1001.78
2019-01-11T20:49:32.426Z,1001.86
2019-01-11T20:50:32.361Z,1001.72
2019-01-11T20:51:32.309Z,1001.83
2019-01-11T20:52:32.212Z,1001.74
2019-01-11T20:53:32.130Z,1001.76
2019-01-11T20:54:32.067Z,1001.75
2019-01-11T20:55:31.987Z,1001.78
2019-01-11T20:56:31.914Z,1001.76
2019-01-11T20:57:31.838Z,1001.79
2019-01-11T20:58:31.755Z,1001.82
2019-01-11T20:59:31.674Z,1001.78
2019-01-11T21:00:31.612Z,1001.79
2019-01-11T21:01:31.520Z,1001.82
2019-01-11T21:02:31.447Z,1001.82
2019-01-11T21:03:31.376Z,1001.90
2019-01-11T21:04:31.302Z,1001.98
2019-01-11T21:05:31.226Z,1001.95
2019-01-11T21:06:31.154Z,1001.99
2019-01-11T21:07:31.082Z,1002.05
2019-01-11T21:08:30.989Z,1002.00
2019-01-11T21:09:30.925Z,1001.99
2019-01-11T21:10:30.847Z,1002.09
2019-01-11T21:11:30.761Z,1002.10
2019-01-11T21:12:30.689Z,1002.13
2019-01-11T21:13:30.609Z,1002.15
2019-01-11T21:14:30.535Z,1002.24
2019-01-11T21:15:30.471Z,1002.25
2019-01-11T21:16:30.395Z,1002.30
2019-01-11T21:17:30.322Z,1002.32
2019-01-11T21:18:30.243Z,1002.18
2019-01-11T21:19:30.160Z,1002.35
2019-01-11T21:20:30.082Z,1002.36
2019-01-11T21:21:30.030Z,1002.30
2019-01-11T21:22:29.929Z,1002.27
2019-01-11T21:23:29.865Z,1002.20
2019-01-11T21:24:29.788Z,1002.20
2019-01-11T21:25:29.704Z,1002.20
2019-01-11T21:26:29.636Z,1002.16
2019-01-11T21:27:29.573Z,1002.16
2019-01-11T21:28:29.499Z,1002.14
2019-01-11T21:29:29.417Z,1002.18
2019-01-11T21:30:29.334Z,1002.20
2019-01-11T21:31:29.251Z,1002.16
2019-01-11T21:32:29.172Z,1002.16
2019-01-11T21:33:29.111Z,1002.28
2019-01-11T21:34:29.035Z,1002.34
2019-01-11T21:35:28.942Z,1002.35
2019-01-11T21:36:28.869Z,1002.34
2019-01-11T21:37:28.843Z,1002.44
2019-01-11T21:38:28.740Z,1002.40
2019-01-11T21:39:28.648Z,1002.37
2019-01-11T21:40:28.592Z,1002.35
2019-01-11T21:41:28.529Z,1002.40
2019-01-11T21:42:28.415Z,1002.39
2019-01-11T21:43:28.353Z,1002.38
2019-01-11T21:44:28.284Z,1002.35
2019-01-11T21:45:28.208Z,1002.33
2019-01-11T21:46:28.127Z,1002.28
2019-01-11T21:47:28.041Z,1002.37
2019-01-11T21:48:27.960Z,1002.35
2019-01-11T21:49:27.890Z,1002.35
2019-01-11T21:50:29.027Z,1002.27
2019-01-11T21:51:27.760Z,1002.24
2019-01-11T21:52:27.676Z,1002.17
2019-01-11T21:53:27.646Z,1002.26
2019-01-11T21:54:27.512Z,1002.23
2019-01-11T21:55:27.454Z,1002.24
2019-01-11T21:56:27.355Z,1002.35
2019-01-11T21:57:27.305Z,1002.35
2019-01-11T21:58:27.215Z,1002.34
2019-01-11T21:59:27.133Z,1002.37
2019-01-11T22:00:27.055Z,1002.35
2019-01-11T22:01:26.993Z,1002.35
2019-01-11T22:02:26.905Z,1002.27
2019-01-11T22:03:26.844Z,1002.34
2019-01-11T22:04:26.759Z,1002.36
2019-01-11T22:05:26.705Z,1002.36
2019-01-11T22:06:26.613Z,1002.44
2019-01-11T22:07:26.524Z,1002.38
2019-01-11T22:08:26.445Z,1002.49
2019-01-11T22:09:26.373Z,1002.53
2019-01-11T22:10:26.299Z,1002.58
2019-01-11T22:11:26.229Z,1002.60
2019-01-11T22:12:26.149Z,1002.66
2019-01-11T22:13:26.074Z,1002.64
2019-01-11T22:14:25.992Z,1002.61
2019-01-11T22:15:25.926Z,1002.60
2019-01-11T22:16:25.855Z,1002.58
2019-01-11T22:17:25.776Z,1002.56
2019-01-11T22:18:25.695Z,1002.56
2019-01-11T22:19:25.617Z,1002.55
2019-01-11T22:20:25.533Z,1002.58
2019-01-11T22:21:25.469Z,1002.55
2019-01-11T22:22:25.402Z,1002.50
2019-01-11T22:23:25.324Z,1002.56
2019-01-11T22:24:25.246Z,1002.57
2019-01-11T22:25:25.202Z,1002.51
2019-01-11T22:26:25.085Z,1002.51
2019-01-11T22:27:25.668Z,1002.54
2019-01-11T22:28:24.927Z,1002.51
2019-01-11T22:29:24.868Z,1002.59
2019-01-11T22:30:30.173Z,1002.52
2019-01-11T22:31:24.717Z,1002.63
2019-01-11T22:32:24.757Z,1002.61
2019-01-11T22:33:24.597Z,1002.61
2019-01-11T22:34:24.469Z,1002.61
2019-01-11T22:35:24.424Z,1002.54
2019-01-11T22:36:24.338Z,1002.50
2019-01-11T22:37:24.262Z,1002.51
2019-01-11T22:38:24.186Z,1002.52
2019-01-11T22:39:24.103Z,1002.55
2019-01-11T22:40:24.028Z,1002.62
2019-01-11T22:41:23.969Z,1002.59
2019-01-11T22:42:23.880Z,1002.61
2019-01-11T22:43:23.787Z,1002.57
2019-01-11T22:44:23.734Z,1002.59
2019-01-11T22:45:23.651Z,1002.64
2019-01-11T22:46:23.567Z,1002.67
2019-01-11T22:47:23.509Z,1002.71
2019-01-11T22:48:23.420Z,1002.77
2019-01-11T22:49:23.333Z,1002.73
2019-01-11T22:50:23.273Z,1002.74
2019-01-11T22:51:23.192Z,1002.78
2019-01-11T22:52:23.114Z,1002.76
2019-01-11T22:53:23.047Z,1002.87
2019-01-11T22:54:22.967Z,1002.86
2019-01-11T22:55:22.892Z,1002.80
2019-01-11T22:56:22.805Z,1002.81
2019-01-11T22:57:22.731Z,1002.85
2019-01-11T22:58:22.650Z,1002.82
2019-01-11T22:59:22.585Z,1002.92
2019-01-11T23:00:22.506Z,1002.94
2019-01-11T23:01:22.420Z,1002.79
2019-01-11T23:02:22.348Z,1002.76
2019-01-11T23:03:22.290Z,1002.77
2019-01-11T23:04:22.207Z,1002.76
2019-01-11T23:05:22.136Z,1002.65
2019-01-11T23:06:22.051Z,1002.61
2019-01-11T23:07:21.987Z,1002.67
2019-01-11T23:08:21.890Z,1002.60
2019-01-11T23:09:21.811Z,1002.62
2019-01-11T23:10:21.766Z,1002.57
2019-01-11T23:11:21.670Z,1002.50
2019-01-11T23:12:21.596Z,1002.56
2019-01-11T23:13:21.516Z,1002.56
2019-01-11T23:14:21.441Z,1002.55
2019-01-11T23:15:21.353Z,1002.65
2019-01-11T23:16:21.279Z,1002.60
2019-01-11T23:17:21.216Z,1002.70
2019-01-11T23:18:21.137Z,1002.61
2019-01-11T23:19:21.053Z,1002.73
2019-01-11T23:20:20.979Z,1002.71
2019-01-11T23:21:20.924Z,1002.67
2019-01-11T23:22:20.838Z,1002.58
2019-01-11T23:23:20.755Z,1002.58
2019-01-11T23:24:20.710Z,1002.54
2019-01-11T23:25:20.612Z,1002.50
2019-01-11T23:26:20.527Z,1002.48
2019-01-11T23:27:20.441Z,1002.58
2019-01-11T23:28:20.382Z,1002.55
2019-01-11T23:29:20.285Z,1002.56
2019-01-11T23:30:20.220Z,1002.55
2019-01-11T23:31:20.449Z,1002.55
2019-01-11T23:32:20.069Z,1002.51
2019-01-11T23:33:19.990Z,1002.53
2019-01-11T23:34:19.910Z,1002.44
2019-01-11T23:35:19.841Z,1002.47
2019-01-11T23:36:19.771Z,1002.45
2019-01-11T23:37:19.688Z,1002.39
2019-01-11T23:38:19.615Z,1002.44
2019-01-11T23:39:19.527Z,1002.46
2019-01-11T23:40:19.488Z,1002.38
2019-01-11T23:41:19.393Z,1002.27
2019-01-11T23:42:19.308Z,1002.42
2019-01-11T23:43:19.226Z,1002.34
2019-01-11T23:44:19.148Z,1002.39
2019-01-11T23:45:19.072Z,1002.35
2019-01-11T23:46:18.999Z,1002.36
2019-01-11T23:47:18.932Z,1002.37
2019-01-11T23:48:18.857Z,1002.35
2019-01-11T23:49:18.782Z,1002.39
2019-01-11T23:50:18.685Z,1002.44
2019-01-11T23:51:18.634Z,1002.45
2019-01-11T23:52:18.550Z,1002.42
2019-01-11T23:53:18.474Z,1002.39
2019-01-11T23:54:24.510Z,1002.35
2019-01-11T23:55:18.308Z,1002.38
2019-01-11T23:56:18.246Z,1002.31
2019-01-11T23:57:18.158Z,1002.37
2019-01-11T23:58:18.079Z,1002.44
2019-01-11T23:59:18.013Z,1002.38
